Terminal Aerodrome Forecast
Issued by NWS Hastings, NE

Home | Current Version | Previous Version | Text Only | Print | Product List | Glossary On
Versions: 1 2 3 4 5 6 7 8 9 10 11 12 13 14
000
FTUS45 KGID 301132
TAFEAR
TAF
KEAR 301132Z 3012/3112 17010KT P6SM BKN250
     FM301900 18015G22KT P6SM BKN200
     FM302300 18011KT P6SM BKN100
     FM310300 20009KT P6SM BKN040 BKN080
     FM310900 19008KT 5SM -RASN BKN025
      AMD LTD TO CLD VIS AND WIND=

USA.gov is the U.S. government's official web portal to all federal, state and local government web resources and services.